createdAt,value
2022-12-13T00:00:50.582Z,97822.09
2022-12-13T00:01:54.543Z,97821.19
2022-12-13T00:02:56.553Z,97814.34
2022-12-13T00:04:01.142Z,97820.28
2022-12-13T00:05:04.171Z,97813.47
2022-12-13T00:06:06.360Z,97813.66
2022-12-13T00:07:09.138Z,97811.09
2022-12-13T00:08:11.483Z,97813.66
2022-12-13T00:09:14.842Z,97822.28
2022-12-13T00:10:16.795Z,97814.66
2022-12-13T00:11:19.644Z,97816.38
2022-12-13T00:12:23.025Z,97819.78
2022-12-13T00:13:26.601Z,97821.47
2022-12-13T00:14:29.529Z,97818.91
2022-12-13T00:15:31.323Z,97813.81
2022-12-13T00:16:34.111Z,97818.13
2022-12-13T00:17:36.026Z,97819.88
2022-12-13T00:18:38.967Z,97814.00
2022-12-13T00:19:41.709Z,97817.47
2022-12-13T00:20:43.504Z,97815.81
2022-12-13T00:21:46.604Z,97817.47
2022-12-13T00:22:48.465Z,97820.03
2022-12-13T00:23:51.722Z,97824.28
2022-12-13T00:24:54.335Z,97819.13
2022-12-13T00:25:57.090Z,97824.28
2022-12-13T00:26:59.002Z,97826.84
2022-12-13T00:28:03.625Z,97829.31
2022-12-13T00:29:06.657Z,97824.91
2022-12-13T00:30:10.528Z,97827.56
2022-12-13T00:31:51.651Z,97832.69
2022-12-13T00:32:34.946Z,97833.53
2022-12-13T00:33:37.821Z,97828.38
2022-12-13T00:34:40.550Z,97825.72
2022-12-13T00:35:42.430Z,97830.84
2022-12-13T00:36:45.570Z,97828.25
2022-12-13T00:37:47.292Z,97826.50
2022-12-13T00:39:00.842Z,97830.72
2022-12-13T00:40:03.834Z,97834.19
2022-12-13T00:41:13.301Z,97822.28
2022-12-13T00:42:16.013Z,97834.34
2022-12-13T00:43:19.178Z,97833.53
2022-12-13T00:44:21.923Z,97833.59
2022-12-13T00:45:24.818Z,97834.53
2022-12-13T00:46:27.800Z,97832.03
2022-12-13T00:47:30.600Z,97837.97
2022-12-13T00:48:32.328Z,97836.31
2022-12-13T00:49:35.173Z,97842.28
2022-12-13T00:50:37.771Z,97838.06
2022-12-13T00:51:40.997Z,97839.72
2022-12-13T00:52:42.814Z,97846.59
2022-12-13T00:53:45.946Z,97849.16
2022-12-13T00:54:48.826Z,97842.38
2022-12-13T00:55:51.078Z,97843.28
2022-12-13T00:56:54.055Z,97840.81
2022-12-13T00:57:55.897Z,97844.25
2022-12-13T00:59:00.918Z,97845.28
2022-12-13T01:00:04.379Z,97846.91
2022-12-13T01:01:07.970Z,97847.84
2022-12-13T01:02:10.789Z,97848.75
2022-12-13T01:03:20.673Z,97847.06
2022-12-13T01:04:23.554Z,97846.34
2022-12-13T01:06:02.245Z,97846.34
2022-12-13T01:06:51.353Z,97858.41
2022-12-13T01:07:53.179Z,97845.75
2022-12-13T01:08:56.566Z,97849.22
2022-12-13T01:09:59.397Z,97854.34
2022-12-13T01:11:01.201Z,97854.34
2022-12-13T01:12:06.924Z,97847.56
2022-12-13T01:13:08.665Z,97854.34
2022-12-13T01:14:12.772Z,97848.41
2022-12-13T01:15:14.949Z,97849.31
2022-12-13T01:16:18.686Z,97851.03
2022-12-13T01:17:21.744Z,97860.41
2022-12-13T01:18:23.571Z,97853.59
2022-12-13T01:19:27.562Z,97850.19
2022-12-13T01:20:29.307Z,97862.97
2022-12-13T01:21:32.181Z,97857.84
2022-12-13T01:22:33.969Z,97862.13
2022-12-13T01:23:36.942Z,97852.75
2022-12-13T01:24:40.008Z,97855.31
2022-12-13T01:25:41.744Z,97857.97
2022-12-13T01:26:44.855Z,97860.53
2022-12-13T01:27:47.171Z,97858.16
2022-12-13T01:28:50.428Z,97857.31
2022-12-13T01:29:53.521Z,97853.03
2022-12-13T01:30:57.540Z,97859.03
2022-12-13T01:31:59.548Z,97852.28
2022-12-13T01:33:02.287Z,97853.91
2022-12-13T01:34:19.262Z,97865.09
2022-12-13T01:35:21.066Z,97858.31
2022-12-13T01:36:27.511Z,97861.78
2022-12-13T01:37:31.079Z,97855.00
2022-12-13T01:38:39.223Z,97860.97
2022-12-13T01:39:41.987Z,97857.63
2022-12-13T01:40:45.397Z,97861.94
2022-12-13T01:41:50.595Z,97864.50
2022-12-13T01:42:53.714Z,97858.63
2022-12-13T01:43:58.032Z,97857.88
2022-12-13T01:45:07.814Z,97859.47
2022-12-13T01:46:10.632Z,97864.59
2022-12-13T01:47:15.970Z,97863.75
2022-12-13T01:48:22.007Z,97863.75
2022-12-13T01:49:23.796Z,97868.88
2022-12-13T01:50:31.900Z,97868.94
2022-12-13T01:51:36.442Z,97870.63
2022-12-13T01:52:39.530Z,97872.38
2022-12-13T01:54:02.611Z,97870.69
2022-12-13T01:55:07.491Z,97866.47
2022-12-13T01:56:11.912Z,97873.34
2022-12-13T01:57:15.935Z,97869.13
2022-12-13T01:58:19.518Z,97869.13
2022-12-13T01:59:22.255Z,97871.69
2022-12-13T02:00:27.549Z,97870.84
2022-12-13T02:01:29.681Z,97866.66
2022-12-13T02:02:32.485Z,97871.00
2022-12-13T02:03:35.182Z,97868.53
2022-12-13T02:04:43.805Z,97859.25
2022-12-13T02:05:53.113Z,97866.19
2022-12-13T02:06:56.343Z,97867.13
2022-12-13T02:08:01.178Z,97863.78
2022-12-13T02:09:05.200Z,97868.91
2022-12-13T02:10:09.543Z,97862.03
2022-12-13T02:11:11.711Z,97860.38
2022-12-13T02:12:14.810Z,97864.69
2022-12-13T02:13:16.723Z,97871.63
2022-12-13T02:14:19.461Z,97867.34
2022-12-13T02:15:21.909Z,97869.00
2022-12-13T02:16:35.359Z,97869.81
2022-12-13T02:17:52.314Z,97874.03
2022-12-13T02:19:06.836Z,97868.09
2022-12-13T02:20:26.863Z,97876.78
2022-12-13T02:21:34.313Z,97870.88
2022-12-13T02:23:05.154Z,97875.13
2022-12-13T02:24:40.758Z,97871.78
2022-12-13T02:26:00.191Z,97869.31
2022-12-13T02:27:10.241Z,97875.25
2022-12-13T02:28:31.289Z,97876.16
2022-12-13T02:30:19.631Z,97880.38
2022-12-13T02:31:28.306Z,97877.91
2022-12-13T02:32:33.287Z,97883.84
2022-12-13T02:33:42.687Z,97883.84
2022-12-13T02:34:47.195Z,97881.22
2022-12-13T02:35:54.601Z,97879.56
2022-12-13T02:36:59.413Z,97879.56
2022-12-13T02:38:06.913Z,97885.50
2022-12-13T02:39:11.888Z,97888.06
2022-12-13T02:40:20.016Z,97885.41
2022-12-13T02:41:27.706Z,97878.56
2022-12-13T02:42:31.741Z,97886.25
2022-12-13T02:43:45.224Z,97879.38
2022-12-13T02:44:52.457Z,97885.38
2022-12-13T02:45:56.975Z,97885.38
2022-12-13T02:47:03.188Z,97886.94
2022-12-13T02:48:07.191Z,97889.56
2022-12-13T02:49:10.300Z,97879.31
2022-12-13T02:50:14.572Z,97882.81
2022-12-13T02:51:16.943Z,97893.94
2022-12-13T02:52:22.201Z,97887.16
2022-12-13T02:53:25.692Z,97888.97
2022-12-13T02:54:28.436Z,97885.50
2022-12-13T02:55:32.381Z,97890.63
2022-12-13T02:56:35.138Z,97890.63
2022-12-13T02:57:38.481Z,97885.50
2022-12-13T02:58:43.998Z,97881.22
2022-12-13T02:59:45.865Z,97886.25
2022-12-13T03:00:56.614Z,97884.50
2022-12-13T03:02:10.857Z,97881.06
2022-12-13T03:03:21.829Z,97876.91
2022-12-13T03:04:33.697Z,97877.81
2022-12-13T03:05:59.397Z,97884.69
2022-12-13T03:07:08.684Z,97881.38
2022-12-13T03:08:19.692Z,97884.00
2022-12-13T03:09:38.297Z,97883.25
2022-12-13T03:10:43.673Z,97877.38
2022-12-13T03:12:18.149Z,97879.19
2022-12-13T03:13:39.936Z,97880.25
2022-12-13T03:14:50.321Z,97884.63
2022-12-13T03:15:57.688Z,97882.88
2022-12-13T03:17:02.284Z,97882.06
2022-12-13T03:18:15.743Z,97873.47
2022-12-13T03:19:20.583Z,97888.84
2022-12-13T03:20:24.730Z,97884.44
2022-12-13T03:21:27.642Z,97885.31
2022-12-13T03:22:29.509Z,97881.84
2022-12-13T03:23:32.264Z,97888.53
2022-12-13T03:24:34.122Z,97888.47
2022-12-13T03:25:36.980Z,97884.19
2022-12-13T03:26:39.494Z,97890.78
2022-12-13T03:27:42.350Z,97884.78
2022-12-13T03:28:44.535Z,97888.97
2022-12-13T03:29:47.290Z,97882.03
2022-12-13T03:30:49.183Z,97887.16
2022-12-13T03:31:51.960Z,97893.94
2022-12-13T03:32:55.083Z,97893.88
2022-12-13T03:33:58.299Z,97889.63
2022-12-13T03:35:00.965Z,97897.25
2022-12-13T03:36:04.044Z,97895.63
2022-12-13T03:37:05.783Z,97892.97
2022-12-13T03:38:09.040Z,97894.69
2022-12-13T03:39:11.828Z,97893.06
2022-12-13T03:40:13.775Z,97896.50
2022-12-13T03:41:20.186Z,97904.19
2022-12-13T03:42:21.962Z,97903.34
2022-12-13T03:43:24.984Z,97904.19
2022-12-13T03:44:31.712Z,97904.94
2022-12-13T03:45:34.548Z,97907.50
2022-12-13T03:46:36.454Z,97904.03
2022-12-13T03:47:39.585Z,97909.91
2022-12-13T03:48:42.684Z,97902.16
2022-12-13T03:49:45.423Z,97902.06
2022-12-13T03:50:57.569Z,97905.47
2022-12-13T03:51:59.378Z,97903.72
2022-12-13T03:53:04.695Z,97902.81
2022-12-13T03:54:07.497Z,97901.94
2022-12-13T03:55:09.329Z,97903.59
2022-12-13T03:56:12.044Z,97905.22
2022-12-13T03:57:15.657Z,97910.34
2022-12-13T03:58:18.461Z,97901.75
2022-12-13T03:59:21.200Z,97910.28
2022-12-13T04:00:23.383Z,97904.22
2022-12-13T04:01:26.375Z,97911.03
2022-12-13T04:02:31.158Z,97910.13
2022-12-13T04:03:34.638Z,97906.75
2022-12-13T04:04:38.774Z,97915.25
2022-12-13T04:05:40.560Z,97913.59
2022-12-13T04:06:43.649Z,97908.47
2022-12-13T04:07:48.358Z,97911.03
2022-12-13T04:08:52.003Z,97912.69
2022-12-13T04:09:53.962Z,97913.50
2022-12-13T04:10:56.716Z,97918.63
2022-12-13T04:12:17.080Z,97904.91
2022-12-13T04:13:33.931Z,97910.13
2022-12-13T04:14:36.678Z,97907.56
2022-12-13T04:15:38.446Z,97908.38
2022-12-13T04:16:41.297Z,97910.88
2022-12-13T04:17:43.056Z,97913.44
2022-12-13T04:18:54.295Z,97911.69
2022-12-13T04:19:57.466Z,97907.47
2022-12-13T04:21:00.226Z,97910.03
2022-12-13T04:22:02.056Z,97908.38
2022-12-13T04:23:09.926Z,97918.72
2022-12-13T04:24:13.428Z,97909.28
2022-12-13T04:25:15.433Z,97917.91
2022-12-13T04:26:18.549Z,97917.13
2022-12-13T04:27:20.331Z,97917.97
2022-12-13T04:28:23.339Z,97912.84
2022-12-13T04:29:25.520Z,97922.25
2022-12-13T04:30:37.665Z,97917.22
2022-12-13T04:31:41.036Z,97915.56
2022-12-13T04:32:42.897Z,97912.19
2022-12-13T04:33:45.614Z,97917.31
2022-12-13T04:34:47.496Z,97923.25
2022-12-13T04:35:52.201Z,97914.78
2022-12-13T04:36:53.966Z,97919.09
2022-12-13T04:37:57.032Z,97914.78
2022-12-13T04:39:00.526Z,97919.09
2022-12-13T04:40:02.778Z,97916.63
2022-12-13T04:41:07.147Z,97915.72
2022-12-13T04:42:09.245Z,97915.72
2022-12-13T04:43:11.951Z,97917.44
2022-12-13T04:44:27.892Z,97914.78
2022-12-13T04:45:33.443Z,97918.19
2022-12-13T04:46:35.793Z,97911.28
2022-12-13T04:47:38.583Z,97912.19
2022-12-13T04:48:41.470Z,97910.50
2022-12-13T04:49:43.204Z,97913.06
2022-12-13T04:50:46.010Z,97912.22
2022-12-13T04:51:49.332Z,97913.97
2022-12-13T04:52:52.125Z,97914.78
2022-12-13T04:53:53.975Z,97917.38
2022-12-13T04:54:57.212Z,97907.94
2022-12-13T04:55:59.266Z,97908.84
2022-12-13T04:57:01.956Z,97912.31
2022-12-13T04:58:03.826Z,97912.31
2022-12-13T04:59:06.600Z,97913.16
2022-12-13T05:00:13.182Z,97914.78
2022-12-13T05:01:16.059Z,97912.31
2022-12-13T05:02:23.971Z,97917.44
2022-12-13T05:03:27.872Z,97905.53
2022-12-13T05:04:33.220Z,97916.63
2022-12-13T05:05:39.573Z,97910.66
2022-12-13T05:06:41.330Z,97915.78
2022-12-13T05:07:45.469Z,97917.44
2022-12-13T05:08:47.305Z,97913.97
2022-12-13T05:09:50.127Z,97919.91
2022-12-13T05:10:51.954Z,97921.56
2022-12-13T05:12:00.982Z,97918.94
2022-12-13T05:13:05.137Z,97915.47
2022-12-13T05:14:06.949Z,97918.03
2022-12-13T05:15:10.366Z,97916.31
2022-12-13T05:16:12.534Z,97915.47
2022-12-13T05:17:15.485Z,97920.59
2022-12-13T05:18:17.261Z,97924.81
2022-12-13T05:19:20.242Z,97914.66
2022-12-13T05:20:22.436Z,97920.75
2022-12-13T05:21:25.337Z,97914.06
2022-12-13T05:22:27.248Z,97915.78
2022-12-13T05:23:31.441Z,97913.28
2022-12-13T05:24:33.233Z,97916.75
2022-12-13T05:25:36.725Z,97917.59
2022-12-13T05:26:38.712Z,97916.75
2022-12-13T05:27:41.494Z,97917.59
2022-12-13T05:28:44.337Z,97910.72
2022-12-13T05:29:46.361Z,97915.84
2022-12-13T05:30:49.078Z,97915.84
2022-12-13T05:31:52.029Z,97913.22
2022-12-13T05:32:55.200Z,97917.53
2022-12-13T05:34:01.535Z,97916.72
2022-12-13T05:35:05.148Z,97922.72
2022-12-13T05:36:07.721Z,97927.84
2022-12-13T05:37:10.451Z,97915.13
2022-12-13T05:38:12.293Z,97922.72
2022-12-13T05:39:27.879Z,97922.72
2022-12-13T05:40:33.073Z,97918.50
2022-12-13T05:41:36.878Z,97920.22
2022-12-13T05:42:38.807Z,97925.28
2022-12-13T05:43:42.810Z,97927.00
2022-12-13T05:44:46.468Z,97917.59
2022-12-13T05:45:48.495Z,97925.22
2022-12-13T05:46:51.285Z,97923.53
2022-12-13T05:47:53.169Z,97925.28
2022-12-13T05:48:56.050Z,97921.84
2022-12-13T05:49:59.351Z,97928.59
2022-12-13T05:51:10.859Z,97931.16
2022-12-13T05:52:18.015Z,97926.88
2022-12-13T05:53:30.568Z,97924.31
2022-12-13T05:54:35.706Z,97921.84
2022-12-13T05:55:38.144Z,97921.84
2022-12-13T05:56:40.851Z,97921.88
2022-12-13T05:57:42.732Z,97921.06
2022-12-13T05:58:54.296Z,97929.66
2022-12-13T05:59:58.004Z,97925.44
2022-12-13T06:01:05.980Z,97926.34
2022-12-13T06:02:09.300Z,97927.25
2022-12-13T06:03:11.205Z,97923.03
2022-12-13T06:04:23.150Z,97930.72
2022-12-13T06:05:25.356Z,97926.50
2022-12-13T06:06:29.805Z,97923.94
2022-12-13T06:07:32.653Z,97918.00
2022-12-13T06:08:35.975Z,97935.91
2022-12-13T06:09:39.867Z,97930.78
2022-12-13T06:10:43.117Z,97926.50
2022-12-13T06:11:45.978Z,97925.69
2022-12-13T06:12:47.723Z,97924.03
2022-12-13T06:13:52.940Z,97934.28
2022-12-13T06:15:04.629Z,97935.19
2022-12-13T06:16:25.563Z,97936.16
2022-12-13T06:17:31.835Z,97931.94
2022-12-13T06:18:35.032Z,97934.59
2022-12-13T06:19:37.835Z,97938.84
2022-12-13T06:20:39.730Z,97941.50
2022-12-13T06:21:46.332Z,97940.66
2022-12-13T06:22:48.414Z,97944.06
2022-12-13T06:23:51.161Z,97943.16
2022-12-13T06:24:55.416Z,97943.16
2022-12-13T06:25:57.483Z,97945.72
2022-12-13T06:27:00.992Z,97951.66
2022-12-13T06:28:03.513Z,97950.84
2022-12-13T06:29:06.292Z,97948.22
2022-12-13T06:30:09.468Z,97950.00
2022-12-13T06:31:12.704Z,97951.66
2022-12-13T06:32:15.511Z,97953.38
2022-12-13T06:33:23.597Z,97954.16
2022-12-13T06:34:26.603Z,97955.00
2022-12-13T06:35:30.484Z,97953.25
2022-12-13T06:36:34.041Z,97951.50
2022-12-13T06:37:36.834Z,97958.25
2022-12-13T06:38:43.589Z,97949.63
2022-12-13T06:39:46.659Z,97950.47
2022-12-13T06:40:51.183Z,97959.81
2022-12-13T06:41:53.895Z,97948.66
2022-12-13T06:42:56.746Z,97958.06
2022-12-13T06:43:58.866Z,97952.84
2022-12-13T06:45:01.601Z,97951.13
2022-12-13T06:46:04.903Z,97957.94
2022-12-13T06:47:11.089Z,97957.94
2022-12-13T06:48:17.498Z,97965.53
2022-12-13T06:49:22.884Z,97962.16
2022-12-13T06:50:25.937Z,97963.88
2022-12-13T06:51:32.943Z,97970.66
2022-12-13T06:52:36.455Z,97964.72
2022-12-13T06:53:40.266Z,97968.19
2022-12-13T06:54:43.648Z,97967.34
2022-12-13T06:55:46.969Z,97965.66
2022-12-13T06:56:50.127Z,97974.28
2022-12-13T06:57:52.840Z,97974.28
2022-12-13T06:59:01.217Z,97970.06
2022-12-13T07:00:06.111Z,97973.63
2022-12-13T07:01:15.080Z,97982.13
2022-12-13T07:02:27.249Z,97987.31
2022-12-13T07:03:29.885Z,97981.34
2022-12-13T07:04:32.982Z,97977.97
2022-12-13T07:05:35.793Z,97976.22
2022-12-13T07:06:37.938Z,97978.78
2022-12-13T07:07:40.680Z,97974.56
2022-12-13T07:08:43.984Z,97974.56
2022-12-13T07:09:47.069Z,97982.19
2022-12-13T07:10:49.832Z,97979.69
2022-12-13T07:11:54.183Z,97981.34
2022-12-13T07:12:56.971Z,97980.53
2022-12-13T07:14:00.669Z,97983.91
2022-12-13T07:15:02.473Z,97983.91
2022-12-13T07:16:05.897Z,97984.81
2022-12-13T07:17:08.684Z,97988.13
2022-12-13T07:18:11.423Z,97988.13
2022-12-13T07:19:23.889Z,97988.97
2022-12-13T07:20:27.326Z,97993.25
2022-12-13T07:21:30.312Z,97991.53
2022-12-13T07:22:34.462Z,97992.38
2022-12-13T07:23:39.309Z,97983.78
2022-12-13T07:24:44.400Z,97994.94
2022-12-13T07:25:52.898Z,97994.03
2022-12-13T07:26:56.993Z,97989.81
2022-12-13T07:28:01.111Z,97993.13
2022-12-13T07:29:05.401Z,97999.06
2022-12-13T07:30:09.812Z,97992.19
2022-12-13T07:31:13.552Z,97995.59
2022-12-13T07:32:15.917Z,97995.53
2022-12-13T07:33:22.387Z,97998.09
2022-12-13T07:34:25.579Z,97998.09
2022-12-13T07:35:28.537Z,98000.66
2022-12-13T07:36:31.350Z,97995.47
2022-12-13T07:37:35.837Z,98005.63
2022-12-13T07:38:38.900Z,98002.22
2022-12-13T07:39:40.941Z,98009.84
2022-12-13T07:40:43.710Z,98008.94
2022-12-13T07:41:46.715Z,98005.47
2022-12-13T07:42:52.099Z,97999.44
2022-12-13T07:43:55.737Z,98006.13
2022-12-13T07:44:58.837Z,98009.56
2022-12-13T07:46:02.579Z,98009.47
2022-12-13T07:47:05.462Z,98011.13
2022-12-13T07:48:08.605Z,98009.38
2022-12-13T07:49:13.255Z,98006.75
2022-12-13T07:50:24.620Z,98017.84
2022-12-13T07:51:28.882Z,98009.16
2022-12-13T07:52:31.633Z,98015.94
2022-12-13T07:53:34.113Z,98014.22
2022-12-13T07:54:37.161Z,98021.84
2022-12-13T07:55:38.935Z,98017.47
2022-12-13T07:56:41.674Z,98020.75
2022-12-13T07:57:44.669Z,98018.16
2022-12-13T07:58:48.782Z,98019.78
2022-12-13T07:59:51.545Z,98018.97
2022-12-13T08:00:54.636Z,98023.19
2022-12-13T08:01:57.664Z,98018.88
2022-12-13T08:03:05.863Z,98021.38
2022-12-13T08:04:10.818Z,98024.78
2022-12-13T08:05:25.728Z,98017.97
2022-12-13T08:06:29.564Z,98024.00
2022-12-13T08:07:32.308Z,98024.84
2022-12-13T08:08:36.082Z,98024.84
2022-12-13T08:09:39.222Z,98025.75
2022-12-13T08:10:42.118Z,98024.00
2022-12-13T08:11:45.310Z,98026.56
2022-12-13T08:12:48.077Z,98033.34
2022-12-13T08:13:52.311Z,98029.00
2022-12-13T08:14:55.391Z,98021.22
2022-12-13T08:16:02.610Z,98025.34
2022-12-13T08:17:05.901Z,98029.66
2022-12-13T08:18:08.639Z,98030.34
2022-12-13T08:19:11.519Z,98026.81
2022-12-13T08:20:13.526Z,98028.47
2022-12-13T08:21:52.796Z,98023.25
2022-12-13T08:22:55.607Z,98029.19
2022-12-13T08:24:05.525Z,98024.00
2022-12-13T08:25:09.117Z,98023.94
2022-12-13T08:26:31.168Z,98029.81
2022-12-13T08:27:34.022Z,98034.09
2022-12-13T08:28:37.906Z,98040.16
2022-12-13T08:29:42.049Z,98037.66
2022-12-13T08:30:45.143Z,98042.78
2022-12-13T08:31:47.928Z,98035.16
2022-12-13T08:32:50.334Z,98041.19
2022-12-13T08:33:53.484Z,98038.63
2022-12-13T08:34:56.233Z,98041.28
2022-12-13T08:35:58.991Z,98042.09
2022-12-13T08:37:03.902Z,98042.94
2022-12-13T08:38:07.393Z,98044.50
2022-12-13T08:39:10.145Z,98050.41
2022-12-13T08:40:13.154Z,98051.22
2022-12-13T08:41:15.882Z,98048.56
2022-12-13T08:42:20.322Z,98049.41
2022-12-13T08:43:24.648Z,98052.75
2022-12-13T08:44:27.875Z,98047.53
2022-12-13T08:45:34.132Z,98054.31
2022-12-13T08:46:36.933Z,98049.94
2022-12-13T08:47:42.112Z,98046.47
2022-12-13T08:48:44.731Z,98051.50
2022-12-13T08:49:48.129Z,98049.78
2022-12-13T08:50:50.886Z,98054.00
2022-12-13T08:51:52.734Z,98052.19
2022-12-13T08:52:55.697Z,98050.47
2022-12-13T08:54:10.570Z,98052.94
2022-12-13T08:55:15.995Z,98049.47
2022-12-13T08:56:37.442Z,98054.53
2022-12-13T08:57:40.588Z,98053.53
2022-12-13T08:58:43.343Z,98051.78
2022-12-13T08:59:46.380Z,98052.63
2022-12-13T09:00:50.860Z,98050.06
2022-12-13T09:01:53.842Z,98045.75
2022-12-13T09:02:58.427Z,98053.44
2022-12-13T09:04:01.145Z,98048.41
2022-12-13T09:05:04.386Z,98057.94
2022-12-13T09:06:10.261Z,98051.16
2022-12-13T09:07:13.290Z,98047.81
2022-12-13T09:08:25.238Z,98058.91
2022-12-13T09:09:29.058Z,98058.91
2022-12-13T09:10:38.188Z,98048.56
2022-12-13T09:11:42.719Z,98053.72
2022-12-13T09:12:45.873Z,98052.88
2022-12-13T09:13:49.293Z,98059.72
2022-12-13T09:14:52.159Z,98050.31
2022-12-13T09:16:14.288Z,98061.41
2022-12-13T09:17:25.861Z,98067.50
2022-12-13T09:18:36.568Z,98056.56
2022-12-13T09:19:39.757Z,98058.38
2022-12-13T09:20:42.722Z,98051.59
2022-12-13T09:21:45.712Z,98051.50
2022-12-13T09:22:50.132Z,98048.88
2022-12-13T09:23:52.896Z,98053.09
2022-12-13T09:25:05.197Z,98054.69
2022-12-13T09:26:08.224Z,98051.97
2022-12-13T09:27:28.221Z,98055.28
2022-12-13T09:28:31.853Z,98056.00
2022-12-13T09:29:36.312Z,98055.97
2022-12-13T09:30:40.385Z,98057.53
2022-12-13T09:31:51.009Z,98055.78
2022-12-13T09:33:28.335Z,98059.25
2022-12-13T09:34:33.976Z,98061.81
2022-12-13T09:35:38.994Z,98064.38
2022-12-13T09:36:44.342Z,98063.47
2022-12-13T09:37:47.207Z,98062.59
2022-12-13T09:38:50.401Z,98059.13
2022-12-13T09:39:54.985Z,98072.53
2022-12-13T09:40:59.535Z,98068.06
2022-12-13T09:42:10.300Z,98064.44
2022-12-13T09:43:23.016Z,98065.34
2022-12-13T09:44:42.782Z,98069.56
2022-12-13T09:45:50.486Z,98063.59
2022-12-13T09:46:55.781Z,98060.22
2022-12-13T09:48:07.186Z,98059.38
2022-12-13T09:49:23.081Z,98062.09
2022-12-13T09:50:29.202Z,98061.44
2022-12-13T09:51:47.292Z,98070.28
2022-12-13T09:52:51.898Z,98065.31
2022-12-13T09:54:02.576Z,98062.75
2022-12-13T09:55:10.950Z,98066.22
2022-12-13T09:56:13.966Z,98065.31
2022-12-13T09:57:30.612Z,98061.00
2022-12-13T09:58:57.605Z,98062.75
2022-12-13T10:00:05.968Z,98062.66
2022-12-13T10:01:23.303Z,98066.22
2022-12-13T10:02:30.582Z,98058.53
2022-12-13T10:03:34.628Z,98055.97
2022-12-13T10:04:37.445Z,98058.44
2022-12-13T10:05:40.479Z,98060.91
2022-12-13T10:06:43.639Z,98060.78
2022-12-13T10:07:46.192Z,98059.84
2022-12-13T10:08:50.048Z,98056.31
2022-12-13T10:10:01.712Z,98060.38
2022-12-13T10:11:05.269Z,98055.81
2022-12-13T10:12:11.868Z,98056.50
2022-12-13T10:13:19.198Z,98058.00
2022-12-13T10:14:26.235Z,98054.28
2022-12-13T10:15:29.371Z,98057.53
2022-12-13T10:16:39.875Z,98053.88
2022-12-13T10:17:55.408Z,98053.72
2022-12-13T10:18:58.694Z,98056.16
2022-12-13T10:20:00.705Z,98059.44
2022-12-13T10:21:05.741Z,98065.31
2022-12-13T10:22:13.370Z,98061.78
2022-12-13T10:23:35.771Z,98057.47
2022-12-13T10:24:50.693Z,98052.34
2022-12-13T10:26:03.173Z,98055.72
2022-12-13T10:27:14.533Z,98054.81
2022-12-13T10:28:19.287Z,98050.50
2022-12-13T10:29:23.139Z,98059.88
2022-12-13T10:30:29.096Z,98047.88
2022-12-13T10:31:40.625Z,98050.44
2022-12-13T10:32:49.323Z,98048.69
2022-12-13T10:33:55.328Z,98052.91
2022-12-13T10:34:58.825Z,98044.38
2022-12-13T10:36:06.679Z,98052.00
2022-12-13T10:37:26.204Z,98048.53
2022-12-13T10:38:31.892Z,98046.88
2022-12-13T10:39:40.530Z,98047.63
2022-12-13T10:40:45.546Z,98044.16
2022-12-13T10:41:48.457Z,98044.06
2022-12-13T10:43:07.598Z,98040.50
2022-12-13T10:44:18.618Z,98034.56
2022-12-13T10:45:24.431Z,98038.00
2022-12-13T10:46:31.103Z,98037.94
2022-12-13T10:47:43.481Z,98044.72
2022-12-13T10:48:50.563Z,98037.84
2022-12-13T10:49:59.001Z,98045.47
2022-12-13T10:51:04.583Z,98041.16
2022-12-13T10:52:09.228Z,98029.91
2022-12-13T10:53:19.616Z,98041.00
2022-12-13T10:54:28.701Z,98038.34
2022-12-13T10:55:41.115Z,98035.78
2022-12-13T10:56:47.044Z,98039.09
2022-12-13T10:57:52.187Z,98030.53
2022-12-13T10:59:16.547Z,98040.91
2022-12-13T11:00:41.303Z,98035.13
2022-12-13T11:01:44.572Z,98039.59
2022-12-13T11:02:55.299Z,98033.63
2022-12-13T11:04:02.609Z,98036.94
2022-12-13T11:05:25.940Z,98030.88
2022-12-13T11:06:29.537Z,98036.03
2022-12-13T11:07:33.487Z,98026.66
2022-12-13T11:08:37.178Z,98031.88
2022-12-13T11:09:39.938Z,98032.81
2022-12-13T11:10:42.903Z,98035.38
2022-12-13T11:11:46.616Z,98030.25
2022-12-13T11:12:50.650Z,98031.13
2022-12-13T11:13:54.410Z,98032.13
2022-12-13T11:14:59.113Z,98026.25
2022-12-13T11:16:01.824Z,98034.03
2022-12-13T11:17:08.637Z,98025.59
2022-12-13T11:18:23.175Z,98030.88
2022-12-13T11:19:30.798Z,98030.28
2022-12-13T11:20:35.703Z,98024.50
2022-12-13T11:21:39.628Z,98032.28
2022-12-13T11:22:44.169Z,98027.31
2022-12-13T11:23:47.665Z,98023.84
2022-12-13T11:24:52.372Z,98029.88
2022-12-13T11:25:58.688Z,98032.47
2022-12-13T11:27:05.917Z,98021.50
2022-12-13T11:28:26.976Z,98022.44
2022-12-13T11:29:58.912Z,98023.41
2022-12-13T11:31:10.185Z,98023.59
2022-12-13T11:32:22.894Z,98021.94
2022-12-13T11:33:29.001Z,98021.06
2022-12-13T11:34:39.191Z,98024.56
2022-12-13T11:35:55.169Z,98022.81
2022-12-13T11:37:03.728Z,98020.25
2022-12-13T11:38:16.176Z,98019.44
2022-12-13T11:39:21.306Z,98021.16
2022-12-13T11:40:26.878Z,98023.63
2022-12-13T11:41:33.332Z,98020.25
2022-12-13T11:42:40.262Z,98026.16
2022-12-13T11:43:47.746Z,98020.09
2022-12-13T11:44:59.918Z,98016.63
2022-12-13T11:46:06.148Z,98011.47
2022-12-13T11:47:15.419Z,98020.84
2022-12-13T11:48:21.429Z,98022.56
2022-12-13T11:49:33.526Z,98014.81
2022-12-13T11:50:40.439Z,98015.66
2022-12-13T11:51:46.229Z,98018.94
2022-12-13T11:52:53.718Z,98021.41
2022-12-13T11:54:01.860Z,98020.50
2022-12-13T11:55:08.033Z,98014.50
2022-12-13T11:56:17.141Z,98027.22
2022-12-13T11:57:28.474Z,98024.56
2022-12-13T11:59:01.875Z,98024.56
2022-12-13T12:00:13.211Z,98022.09
2022-12-13T12:01:23.611Z,98027.22
2022-12-13T12:02:30.424Z,98024.66
2022-12-13T12:03:37.983Z,98031.44
2022-12-13T12:04:47.240Z,98027.22
2022-12-13T12:05:56.102Z,98029.81
2022-12-13T12:07:24.339Z,98025.50
2022-12-13T12:08:43.691Z,98030.63
2022-12-13T12:09:51.622Z,98030.78
2022-12-13T12:11:02.499Z,98030.03
2022-12-13T12:12:09.258Z,98033.53
2022-12-13T12:13:18.009Z,98041.31
2022-12-13T12:14:24.578Z,98028.53
2022-12-13T12:15:31.016Z,98037.06
2022-12-13T12:16:39.805Z,98033.66
2022-12-13T12:17:43.285Z,98036.22
2022-12-13T12:18:46.476Z,98034.44
2022-12-13T12:19:52.449Z,98029.31
2022-12-13T12:21:05.985Z,98030.13
2022-12-13T12:22:19.301Z,98030.03
2022-12-13T12:23:30.067Z,98040.31
2022-12-13T12:24:40.559Z,98034.25
2022-12-13T12:25:48.443Z,98034.25
2022-12-13T12:27:01.043Z,98032.47
2022-12-13T12:28:12.100Z,98035.03
2022-12-13T12:29:27.772Z,98040.16
2022-12-13T12:30:39.293Z,98041.03
2022-12-13T12:31:50.897Z,98041.97
2022-12-13T12:32:55.831Z,98034.25
2022-12-13T12:34:05.533Z,98043.69
2022-12-13T12:35:23.124Z,98030.03
2022-12-13T12:36:37.924Z,98033.44
2022-12-13T12:37:48.393Z,98032.59
2022-12-13T12:39:06.379Z,98029.22
2022-12-13T12:41:14.230Z,98025.00
2022-12-13T12:42:16.382Z,98025.09
2022-12-13T12:43:23.755Z,98026.75
2022-12-13T12:44:33.650Z,98029.31
2022-12-13T12:45:57.313Z,98029.22
2022-12-13T12:49:00.474Z,98029.13
2022-12-13T12:50:27.409Z,98024.91
2022-12-13T12:51:35.541Z,98036.91
2022-12-13T12:52:50.625Z,98027.66
2022-12-13T12:53:56.111Z,98032.03
2022-12-13T12:55:05.212Z,98033.75
2022-12-13T12:56:18.688Z,98031.28
2022-12-13T12:57:24.792Z,98028.72
2022-12-13T12:58:30.126Z,98031.28
2022-12-13T12:59:38.589Z,98035.66